sensor_id;sensor_type;location;lat;lon;timestamp;temperature;humidity
3860;DHT22;1945;52.036;8.614;2023-09-07T00:00:30;15.80;99.90
3860;DHT22;1945;52.036;8.614;2023-09-07T00:02:58;15.80;99.90
3860;DHT22;1945;52.036;8.614;2023-09-07T00:05:25;15.70;99.90
3860;DHT22;1945;52.036;8.614;2023-09-07T00:07:52;15.60;99.90
3860;DHT22;1945;52.036;8.614;2023-09-07T00:10:19;15.50;99.90
3860;DHT22;1945;52.036;8.614;2023-09-07T00:12:45;15.50;99.90
3860;DHT22;1945;52.036;8.614;2023-09-07T00:15:12;15.40;99.90
3860;DHT22;1945;52.036;8.614;2023-09-07T00:17:39;15.40;99.90
3860;DHT22;1945;52.036;8.614;2023-09-07T00:20:08;15.40;99.90
3860;DHT22;1945;52.036;8.614;2023-09-07T00:22:40;15.30;99.90
3860;DHT22;1945;52.036;8.614;2023-09-07T00:25:07;15.40;99.90
3860;DHT22;1945;52.036;8.614;2023-09-07T00:27:34;15.40;99.90
3860;DHT22;1945;52.036;8.614;2023-09-07T00:30:02;15.30;99.90
3860;DHT22;1945;52.036;8.614;2023-09-07T00:32:29;15.20;99.90
3860;DHT22;1945;52.036;8.614;2023-09-07T00:34:56;15.20;99.90
3860;DHT22;1945;52.036;8.614;2023-09-07T00:37:24;15.10;99.90
3860;DHT22;1945;52.036;8.614;2023-09-07T00:39:51;15.20;99.90
3860;DHT22;1945;52.036;8.614;2023-09-07T00:42:19;15.30;99.90
3860;DHT22;1945;52.036;8.614;2023-09-07T00:44:45;15.20;99.90
3860;DHT22;1945;52.036;8.614;2023-09-07T00:47:13;15.40;99.90
3860;DHT22;1945;52.036;8.614;2023-09-07T00:49:40;15.20;99.90
3860;DHT22;1945;52.036;8.614;2023-09-07T00:52:08;15.20;99.90
3860;DHT22;1945;52.036;8.614;2023-09-07T00:54:36;15.10;99.90
3860;DHT22;1945;52.036;8.614;2023-09-07T00:57:06;15.10;99.90
3860;DHT22;1945;52.036;8.614;2023-09-07T00:59:33;14.90;99.90
3860;DHT22;1945;52.036;8.614;2023-09-07T01:02:00;15.00;99.90
3860;DHT22;1945;52.036;8.614;2023-09-07T01:04:27;14.90;99.90
3860;DHT22;1945;52.036;8.614;2023-09-07T01:06:56;14.90;99.90
3860;DHT22;1945;52.036;8.614;2023-09-07T01:09:28;14.80;99.90
3860;DHT22;1945;52.036;8.614;2023-09-07T01:11:58;14.80;99.90
3860;DHT22;1945;52.036;8.614;2023-09-07T01:14:25;14.70;99.90
3860;DHT22;1945;52.036;8.614;2023-09-07T01:16:52;14.70;99.90
3860;DHT22;1945;52.036;8.614;2023-09-07T01:19:19;14.70;99.90
3860;DHT22;1945;52.036;8.614;2023-09-07T01:21:47;14.60;99.90
3860;DHT22;1945;52.036;8.614;2023-09-07T01:24:15;14.50;99.90
3860;DHT22;1945;52.036;8.614;2023-09-07T01:26:42;14.50;99.90
3860;DHT22;1945;52.036;8.614;2023-09-07T01:29:14;14.50;99.90
3860;DHT22;1945;52.036;8.614;2023-09-07T01:31:42;14.40;99.90
3860;DHT22;1945;52.036;8.614;2023-09-07T01:34:09;14.40;99.90
3860;DHT22;1945;52.036;8.614;2023-09-07T01:36:35;14.40;99.90
3860;DHT22;1945;52.036;8.614;2023-09-07T01:39:04;14.40;99.90
3860;DHT22;1945;52.036;8.614;2023-09-07T01:41:31;14.40;99.90
3860;DHT22;1945;52.036;8.614;2023-09-07T01:43:58;14.30;99.90
3860;DHT22;1945;52.036;8.614;2023-09-07T01:46:25;14.40;99.90
3860;DHT22;1945;52.036;8.614;2023-09-07T01:48:52;14.30;99.90
3860;DHT22;1945;52.036;8.614;2023-09-07T01:51:18;14.20;99.90
3860;DHT22;1945;52.036;8.614;2023-09-07T01:53:47;14.20;99.90
3860;DHT22;1945;52.036;8.614;2023-09-07T01:56:16;14.20;99.90
3860;DHT22;1945;52.036;8.614;2023-09-07T01:58:42;14.20;99.90
3860;DHT22;1945;52.036;8.614;2023-09-07T02:01:24;14.20;99.90
3860;DHT22;1945;52.036;8.614;2023-09-07T02:03:51;14.10;99.90
3860;DHT22;1945;52.036;8.614;2023-09-07T02:06:18;14.10;99.90
3860;DHT22;1945;52.036;8.614;2023-09-07T02:08:45;14.00;99.90
3860;DHT22;1945;52.036;8.614;2023-09-07T02:11:13;13.90;99.90
3860;DHT22;1945;52.036;8.614;2023-09-07T02:13:42;13.90;99.90
3860;DHT22;1945;52.036;8.614;2023-09-07T02:16:09;13.90;99.90
3860;DHT22;1945;52.036;8.614;2023-09-07T02:18:37;13.80;99.90
3860;DHT22;1945;52.036;8.614;2023-09-07T02:21:05;13.80;99.90
3860;DHT22;1945;52.036;8.614;2023-09-07T02:23:32;13.80;99.90
3860;DHT22;1945;52.036;8.614;2023-09-07T02:25:59;13.70;99.90
3860;DHT22;1945;52.036;8.614;2023-09-07T02:28:26;13.70;99.90
3860;DHT22;1945;52.036;8.614;2023-09-07T02:30:54;13.70;99.90
3860;DHT22;1945;52.036;8.614;2023-09-07T02:33:21;13.70;99.90
3860;DHT22;1945;52.036;8.614;2023-09-07T02:35:48;13.70;99.90
3860;DHT22;1945;52.036;8.614;2023-09-07T02:38:15;13.60;99.90
3860;DHT22;1945;52.036;8.614;2023-09-07T02:40:42;13.70;99.90
3860;DHT22;1945;52.036;8.614;2023-09-07T02:43:09;13.70;99.90
3860;DHT22;1945;52.036;8.614;2023-09-07T02:45:36;13.60;99.90
3860;DHT22;1945;52.036;8.614;2023-09-07T02:48:05;13.50;99.90
3860;DHT22;1945;52.036;8.614;2023-09-07T02:50:33;13.50;99.90
3860;DHT22;1945;52.036;8.614;2023-09-07T02:53:01;13.50;99.90
3860;DHT22;1945;52.036;8.614;2023-09-07T02:55:28;13.50;99.90
3860;DHT22;1945;52.036;8.614;2023-09-07T02:57:56;13.60;99.90
3860;DHT22;1945;52.036;8.614;2023-09-07T03:00:23;13.70;99.90
3860;DHT22;1945;52.036;8.614;2023-09-07T03:02:49;13.60;99.90
3860;DHT22;1945;52.036;8.614;2023-09-07T03:05:18;13.60;99.90
3860;DHT22;1945;52.036;8.614;2023-09-07T03:07:45;13.50;99.90
3860;DHT22;1945;52.036;8.614;2023-09-07T03:10:12;13.50;99.90
3860;DHT22;1945;52.036;8.614;2023-09-07T03:12:39;13.40;99.90
3860;DHT22;1945;52.036;8.614;2023-09-07T03:15:07;13.40;99.90
3860;DHT22;1945;52.036;8.614;2023-09-07T03:17:33;13.40;99.90
3860;DHT22;1945;52.036;8.614;2023-09-07T03:20:00;13.30;99.90
3860;DHT22;1945;52.036;8.614;2023-09-07T03:22:32;13.20;99.90
3860;DHT22;1945;52.036;8.614;2023-09-07T03:24:59;13.20;99.90
3860;DHT22;1945;52.036;8.614;2023-09-07T03:27:25;13.10;99.90
3860;DHT22;1945;52.036;8.614;2023-09-07T03:29:52;13.10;99.90
3860;DHT22;1945;52.036;8.614;2023-09-07T03:32:19;13.10;99.90
3860;DHT22;1945;52.036;8.614;2023-09-07T03:34:46;13.10;99.90
3860;DHT22;1945;52.036;8.614;2023-09-07T03:37:12;13.20;99.90
3860;DHT22;1945;52.036;8.614;2023-09-07T03:39:40;13.20;99.90
3860;DHT22;1945;52.036;8.614;2023-09-07T03:42:07;13.20;99.90
3860;DHT22;1945;52.036;8.614;2023-09-07T03:44:34;13.10;99.90
3860;DHT22;1945;52.036;8.614;2023-09-07T03:47:01;13.20;99.90
3860;DHT22;1945;52.036;8.614;2023-09-07T03:49:29;13.10;99.90
3860;DHT22;1945;52.036;8.614;2023-09-07T03:51:55;13.10;99.90
3860;DHT22;1945;52.036;8.614;2023-09-07T03:54:22;13.00;99.90
3860;DHT22;1945;52.036;8.614;2023-09-07T03:56:50;13.00;99.90
3860;DHT22;1945;52.036;8.614;2023-09-07T03:59:17;12.90;99.90
3860;DHT22;1945;52.036;8.614;2023-09-07T04:01:44;12.90;99.90
3860;DHT22;1945;52.036;8.614;2023-09-07T04:04:15;12.90;99.90
3860;DHT22;1945;52.036;8.614;2023-09-07T04:06:51;12.80;99.90
3860;DHT22;1945;52.036;8.614;2023-09-07T04:09:23;12.70;99.90
3860;DHT22;1945;52.036;8.614;2023-09-07T04:11:52;12.70;99.90
3860;DHT22;1945;52.036;8.614;2023-09-07T04:14:20;12.70;99.90
3860;DHT22;1945;52.036;8.614;2023-09-07T04:16:47;12.70;99.90
3860;DHT22;1945;52.036;8.614;2023-09-07T04:19:16;12.70;99.90
3860;DHT22;1945;52.036;8.614;2023-09-07T04:21:52;12.60;99.90
3860;DHT22;1945;52.036;8.614;2023-09-07T04:24:20;12.60;99.90
3860;DHT22;1945;52.036;8.614;2023-09-07T04:26:48;12.60;99.90
3860;DHT22;1945;52.036;8.614;2023-09-07T04:29:17;12.60;99.90
3860;DHT22;1945;52.036;8.614;2023-09-07T04:31:45;12.60;99.90
3860;DHT22;1945;52.036;8.614;2023-09-07T04:34:12;12.60;99.90
3860;DHT22;1945;52.036;8.614;2023-09-07T04:36:38;12.60;99.90
3860;DHT22;1945;52.036;8.614;2023-09-07T04:39:05;12.70;99.90
3860;DHT22;1945;52.036;8.614;2023-09-07T04:41:32;12.70;99.90
3860;DHT22;1945;52.036;8.614;2023-09-07T04:43:58;12.80;99.90
3860;DHT22;1945;52.036;8.614;2023-09-07T04:46:26;12.70;99.90
3860;DHT22;1945;52.036;8.614;2023-09-07T04:48:53;12.60;99.90
3860;DHT22;1945;52.036;8.614;2023-09-07T04:51:20;12.70;99.90
3860;DHT22;1945;52.036;8.614;2023-09-07T04:53:47;12.70;99.90
3860;DHT22;1945;52.036;8.614;2023-09-07T04:56:14;12.70;99.90
3860;DHT22;1945;52.036;8.614;2023-09-07T04:58:41;12.60;99.90
3860;DHT22;1945;52.036;8.614;2023-09-07T05:01:11;12.60;99.90
3860;DHT22;1945;52.036;8.614;2023-09-07T05:03:39;12.60;99.90
3860;DHT22;1945;52.036;8.614;2023-09-07T05:06:06;12.70;99.90
3860;DHT22;1945;52.036;8.614;2023-09-07T05:08:33;13.10;99.90
3860;DHT22;1945;52.036;8.614;2023-09-07T05:11:01;13.40;99.90
3860;DHT22;1945;52.036;8.614;2023-09-07T05:13:28;13.60;99.90
3860;DHT22;1945;52.036;8.614;2023-09-07T05:15:55;13.80;99.90
3860;DHT22;1945;52.036;8.614;2023-09-07T05:18:23;13.90;99.90
3860;DHT22;1945;52.036;8.614;2023-09-07T05:20:51;14.20;99.90
3860;DHT22;1945;52.036;8.614;2023-09-07T05:23:18;14.40;99.90
3860;DHT22;1945;52.036;8.614;2023-09-07T05:25:45;14.60;2.60
3860;DHT22;1945;52.036;8.614;2023-09-07T05:28:14;14.90;1.00
3860;DHT22;1945;52.036;8.614;2023-09-07T05:30:42;15.10;1.00
3860;DHT22;1945;52.036;8.614;2023-09-07T05:33:10;15.40;1.00
3860;DHT22;1945;52.036;8.614;2023-09-07T05:35:39;15.70;1.00
3860;DHT22;1945;52.036;8.614;2023-09-07T05:38:09;15.90;1.00
3860;DHT22;1945;52.036;8.614;2023-09-07T05:40:37;16.20;1.00
3860;DHT22;1945;52.036;8.614;2023-09-07T05:43:04;16.50;1.00
3860;DHT22;1945;52.036;8.614;2023-09-07T05:45:33;16.80;1.00
3860;DHT22;1945;52.036;8.614;2023-09-07T05:48:02;17.10;1.00
3860;DHT22;1945;52.036;8.614;2023-09-07T05:50:29;17.40;99.90
3860;DHT22;1945;52.036;8.614;2023-09-07T05:52:56;17.60;99.90
3860;DHT22;1945;52.036;8.614;2023-09-07T05:55:24;17.80;99.90
3860;DHT22;1945;52.036;8.614;2023-09-07T05:57:53;18.00;99.90
3860;DHT22;1945;52.036;8.614;2023-09-07T06:00:20;18.30;99.90
3860;DHT22;1945;52.036;8.614;2023-09-07T06:02:47;18.60;99.90
3860;DHT22;1945;52.036;8.614;2023-09-07T06:05:14;18.80;68.90
3860;DHT22;1945;52.036;8.614;2023-09-07T06:07:42;19.10;1.00
3860;DHT22;1945;52.036;8.614;2023-09-07T06:10:10;19.20;38.80
3860;DHT22;1945;52.036;8.614;2023-09-07T06:12:39;19.50;1.00
3860;DHT22;1945;52.036;8.614;2023-09-07T06:15:08;19.80;1.00
3860;DHT22;1945;52.036;8.614;2023-09-07T06:17:36;19.90;1.00
3860;DHT22;1945;52.036;8.614;2023-09-07T06:20:04;20.20;1.00
3860;DHT22;1945;52.036;8.614;2023-09-07T06:22:31;20.40;1.00
3860;DHT22;1945;52.036;8.614;2023-09-07T06:24:58;20.80;1.00
3860;DHT22;1945;52.036;8.614;2023-09-07T06:27:25;20.90;99.90
3860;DHT22;1945;52.036;8.614;2023-09-07T06:29:53;21.20;1.00
3860;DHT22;1945;52.036;8.614;2023-09-07T06:32:20;21.40;99.90
3860;DHT22;1945;52.036;8.614;2023-09-07T06:34:47;21.60;99.90
3860;DHT22;1945;52.036;8.614;2023-09-07T06:37:13;22.00;99.90
3860;DHT22;1945;52.036;8.614;2023-09-07T06:39:40;22.40;99.90
3860;DHT22;1945;52.036;8.614;2023-09-07T06:42:09;22.60;47.50
3860;DHT22;1945;52.036;8.614;2023-09-07T06:44:36;23.00;1.00
3860;DHT22;1945;52.036;8.614;2023-09-07T06:47:05;23.20;1.00
3860;DHT22;1945;52.036;8.614;2023-09-07T06:49:32;23.50;1.00
3860;DHT22;1945;52.036;8.614;2023-09-07T06:52:00;23.70;1.00
3860;DHT22;1945;52.036;8.614;2023-09-07T06:54:29;23.90;1.00
3860;DHT22;1945;52.036;8.614;2023-09-07T06:56:56;23.90;99.90
3860;DHT22;1945;52.036;8.614;2023-09-07T06:59:23;24.30;1.00
3860;DHT22;1945;52.036;8.614;2023-09-07T07:01:50;24.60;1.00
3860;DHT22;1945;52.036;8.614;2023-09-07T07:04:18;24.20;1.00
3860;DHT22;1945;52.036;8.614;2023-09-07T07:06:45;24.30;1.00
3860;DHT22;1945;52.036;8.614;2023-09-07T07:09:12;24.60;1.00
3860;DHT22;1945;52.036;8.614;2023-09-07T07:11:40;24.60;99.90
3860;DHT22;1945;52.036;8.614;2023-09-07T07:14:08;24.90;99.90
3860;DHT22;1945;52.036;8.614;2023-09-07T07:16:37;25.00;99.90
3860;DHT22;1945;52.036;8.614;2023-09-07T07:19:04;25.20;93.20
3860;DHT22;1945;52.036;8.614;2023-09-07T07:21:32;25.20;25.20
3860;DHT22;1945;52.036;8.614;2023-09-07T07:23:59;25.50;1.00
3860;DHT22;1945;52.036;8.614;2023-09-07T07:26:27;25.70;61.10
3860;DHT22;1945;52.036;8.614;2023-09-07T07:28:54;25.70;6.00
3860;DHT22;1945;52.036;8.614;2023-09-07T07:31:20;25.50;26.10
3860;DHT22;1945;52.036;8.614;2023-09-07T07:33:47;25.60;1.00
3860;DHT22;1945;52.036;8.614;2023-09-07T07:36:14;25.90;1.00
3860;DHT22;1945;52.036;8.614;2023-09-07T07:38:43;25.80;1.00
3860;DHT22;1945;52.036;8.614;2023-09-07T07:41:10;26.00;1.00
3860;DHT22;1945;52.036;8.614;2023-09-07T07:43:37;26.00;1.00
3860;DHT22;1945;52.036;8.614;2023-09-07T07:46:04;26.10;1.00
3860;DHT22;1945;52.036;8.614;2023-09-07T07:48:31;26.10;1.00
3860;DHT22;1945;52.036;8.614;2023-09-07T07:51:03;26.10;1.00
3860;DHT22;1945;52.036;8.614;2023-09-07T07:53:30;26.10;1.00
3860;DHT22;1945;52.036;8.614;2023-09-07T07:55:59;26.30;1.00
3860;DHT22;1945;52.036;8.614;2023-09-07T07:58:26;26.40;1.00
3860;DHT22;1945;52.036;8.614;2023-09-07T08:00:54;26.40;1.00
3860;DHT22;1945;52.036;8.614;2023-09-07T08:03:23;25.70;1.00
3860;DHT22;1945;52.036;8.614;2023-09-07T08:05:50;25.90;1.00
3860;DHT22;1945;52.036;8.614;2023-09-07T08:08:17;25.90;1.00
3860;DHT22;1945;52.036;8.614;2023-09-07T08:10:45;26.40;1.00
3860;DHT22;1945;52.036;8.614;2023-09-07T08:13:13;26.10;1.00
3860;DHT22;1945;52.036;8.614;2023-09-07T08:15:40;26.20;1.00
3860;DHT22;1945;52.036;8.614;2023-09-07T08:18:08;25.70;1.00
3860;DHT22;1945;52.036;8.614;2023-09-07T08:20:35;25.80;1.00
3860;DHT22;1945;52.036;8.614;2023-09-07T08:23:05;25.80;1.00
3860;DHT22;1945;52.036;8.614;2023-09-07T08:25:35;25.80;1.00
3860;DHT22;1945;52.036;8.614;2023-09-07T08:28:02;25.80;1.00
3860;DHT22;1945;52.036;8.614;2023-09-07T08:30:33;25.60;1.00
3860;DHT22;1945;52.036;8.614;2023-09-07T08:32:59;25.70;1.00
3860;DHT22;1945;52.036;8.614;2023-09-07T08:35:28;26.00;1.00
3860;DHT22;1945;52.036;8.614;2023-09-07T08:37:55;25.60;1.00
3860;DHT22;1945;52.036;8.614;2023-09-07T08:40:24;25.60;1.00
3860;DHT22;1945;52.036;8.614;2023-09-07T08:42:53;25.60;1.00
3860;DHT22;1945;52.036;8.614;2023-09-07T08:45:21;25.60;1.00
3860;DHT22;1945;52.036;8.614;2023-09-07T08:47:50;25.50;1.00
3860;DHT22;1945;52.036;8.614;2023-09-07T08:50:19;25.60;1.00
3860;DHT22;1945;52.036;8.614;2023-09-07T08:52:46;25.70;1.00
3860;DHT22;1945;52.036;8.614;2023-09-07T08:55:15;25.70;1.00
3860;DHT22;1945;52.036;8.614;2023-09-07T08:57:42;25.50;1.00
3860;DHT22;1945;52.036;8.614;2023-09-07T09:00:10;25.50;1.00
3860;DHT22;1945;52.036;8.614;2023-09-07T09:02:42;25.50;1.00
3860;DHT22;1945;52.036;8.614;2023-09-07T09:05:11;25.50;1.00
3860;DHT22;1945;52.036;8.614;2023-09-07T09:07:40;25.30;1.00
3860;DHT22;1945;52.036;8.614;2023-09-07T09:10:08;25.30;1.00
3860;DHT22;1945;52.036;8.614;2023-09-07T09:12:35;25.80;1.00
3860;DHT22;1945;52.036;8.614;2023-09-07T09:15:03;25.80;1.00
3860;DHT22;1945;52.036;8.614;2023-09-07T09:17:30;25.70;1.00
3860;DHT22;1945;52.036;8.614;2023-09-07T09:19:57;25.50;1.00
3860;DHT22;1945;52.036;8.614;2023-09-07T09:22:26;25.50;1.00
3860;DHT22;1945;52.036;8.614;2023-09-07T09:24:53;25.60;1.00
3860;DHT22;1945;52.036;8.614;2023-09-07T09:27:20;25.60;1.00
3860;DHT22;1945;52.036;8.614;2023-09-07T09:29:49;25.70;1.00
3860;DHT22;1945;52.036;8.614;2023-09-07T09:32:17;25.90;1.00
3860;DHT22;1945;52.036;8.614;2023-09-07T09:34:46;25.90;1.00
3860;DHT22;1945;52.036;8.614;2023-09-07T09:37:15;25.80;1.00
3860;DHT22;1945;52.036;8.614;2023-09-07T09:39:44;25.80;1.00
3860;DHT22;1945;52.036;8.614;2023-09-07T09:42:16;26.00;1.00
3860;DHT22;1945;52.036;8.614;2023-09-07T09:44:43;26.00;1.00
3860;DHT22;1945;52.036;8.614;2023-09-07T09:47:13;26.00;1.00
3860;DHT22;1945;52.036;8.614;2023-09-07T09:49:41;26.20;1.00
3860;DHT22;1945;52.036;8.614;2023-09-07T09:52:09;26.00;1.00
3860;DHT22;1945;52.036;8.614;2023-09-07T09:54:38;26.00;1.00
3860;DHT22;1945;52.036;8.614;2023-09-07T09:57:06;26.00;1.00
3860;DHT22;1945;52.036;8.614;2023-09-07T09:59:34;26.20;1.00
3860;DHT22;1945;52.036;8.614;2023-09-07T10:02:02;26.20;1.00
3860;DHT22;1945;52.036;8.614;2023-09-07T10:04:30;26.20;1.00
3860;DHT22;1945;52.036;8.614;2023-09-07T10:06:59;26.20;1.00
3860;DHT22;1945;52.036;8.614;2023-09-07T10:09:29;26.20;1.00
3860;DHT22;1945;52.036;8.614;2023-09-07T10:11:58;26.20;1.00
3860;DHT22;1945;52.036;8.614;2023-09-07T10:14:37;26.40;1.00
3860;DHT22;1945;52.036;8.614;2023-09-07T10:17:05;26.30;1.00
3860;DHT22;1945;52.036;8.614;2023-09-07T10:19:32;26.30;1.00
3860;DHT22;1945;52.036;8.614;2023-09-07T10:21:59;26.40;1.00
3860;DHT22;1945;52.036;8.614;2023-09-07T10:24:27;26.50;1.00
3860;DHT22;1945;52.036;8.614;2023-09-07T10:26:58;26.50;1.00
3860;DHT22;1945;52.036;8.614;2023-09-07T10:29:27;26.60;1.00
3860;DHT22;1945;52.036;8.614;2023-09-07T10:31:54;26.40;1.00
3860;DHT22;1945;52.036;8.614;2023-09-07T10:34:21;26.60;1.00
3860;DHT22;1945;52.036;8.614;2023-09-07T10:36:56;26.70;1.00
3860;DHT22;1945;52.036;8.614;2023-09-07T10:39:23;26.80;1.00
3860;DHT22;1945;52.036;8.614;2023-09-07T10:41:51;26.80;1.00
3860;DHT22;1945;52.036;8.614;2023-09-07T10:44:26;26.80;1.00
3860;DHT22;1945;52.036;8.614;2023-09-07T10:46:54;26.70;1.00
3860;DHT22;1945;52.036;8.614;2023-09-07T10:49:21;26.80;1.00
3860;DHT22;1945;52.036;8.614;2023-09-07T10:51:48;27.00;1.00
3860;DHT22;1945;52.036;8.614;2023-09-07T10:54:16;26.90;1.00
3860;DHT22;1945;52.036;8.614;2023-09-07T10:56:44;27.00;1.00
3860;DHT22;1945;52.036;8.614;2023-09-07T10:59:13;27.00;1.00
3860;DHT22;1945;52.036;8.614;2023-09-07T11:01:43;27.20;1.00
3860;DHT22;1945;52.036;8.614;2023-09-07T11:04:10;27.10;1.00
3860;DHT22;1945;52.036;8.614;2023-09-07T11:06:38;27.10;1.00
3860;DHT22;1945;52.036;8.614;2023-09-07T11:09:05;27.00;1.00
3860;DHT22;1945;52.036;8.614;2023-09-07T11:11:34;27.00;1.00
3860;DHT22;1945;52.036;8.614;2023-09-07T11:14:03;27.10;1.00
3860;DHT22;1945;52.036;8.614;2023-09-07T11:16:30;27.10;1.00
3860;DHT22;1945;52.036;8.614;2023-09-07T11:19:02;27.10;1.00
3860;DHT22;1945;52.036;8.614;2023-09-07T11:21:30;27.10;1.00
3860;DHT22;1945;52.036;8.614;2023-09-07T11:23:58;27.30;1.00
3860;DHT22;1945;52.036;8.614;2023-09-07T11:26:26;27.30;1.00
3860;DHT22;1945;52.036;8.614;2023-09-07T11:28:53;27.30;1.00
3860;DHT22;1945;52.036;8.614;2023-09-07T11:31:21;27.30;1.00
3860;DHT22;1945;52.036;8.614;2023-09-07T11:33:48;27.40;1.00
3860;DHT22;1945;52.036;8.614;2023-09-07T11:36:17;27.40;1.00
3860;DHT22;1945;52.036;8.614;2023-09-07T11:38:44;27.40;1.00
3860;DHT22;1945;52.036;8.614;2023-09-07T11:41:11;27.40;1.00
3860;DHT22;1945;52.036;8.614;2023-09-07T11:43:38;27.40;1.00
3860;DHT22;1945;52.036;8.614;2023-09-07T11:46:07;27.50;1.00
3860;DHT22;1945;52.036;8.614;2023-09-07T11:48:34;27.50;1.00
3860;DHT22;1945;52.036;8.614;2023-09-07T11:51:01;27.70;1.00
3860;DHT22;1945;52.036;8.614;2023-09-07T11:53:29;27.70;1.00
3860;DHT22;1945;52.036;8.614;2023-09-07T11:55:56;27.70;1.00
3860;DHT22;1945;52.036;8.614;2023-09-07T11:58:24;27.80;1.00
3860;DHT22;1945;52.036;8.614;2023-09-07T12:00:52;27.80;1.00
3860;DHT22;1945;52.036;8.614;2023-09-07T12:03:21;27.80;1.00
3860;DHT22;1945;52.036;8.614;2023-09-07T12:05:48;27.90;1.00
3860;DHT22;1945;52.036;8.614;2023-09-07T12:08:14;28.00;1.00
3860;DHT22;1945;52.036;8.614;2023-09-07T12:10:43;28.00;1.00
3860;DHT22;1945;52.036;8.614;2023-09-07T12:13:10;28.00;1.00
3860;DHT22;1945;52.036;8.614;2023-09-07T12:15:37;28.00;1.00
3860;DHT22;1945;52.036;8.614;2023-09-07T12:18:04;28.00;1.00
3860;DHT22;1945;52.036;8.614;2023-09-07T12:20:33;28.00;1.00
3860;DHT22;1945;52.036;8.614;2023-09-07T12:23:00;27.90;1.00
3860;DHT22;1945;52.036;8.614;2023-09-07T12:25:27;27.90;1.00
3860;DHT22;1945;52.036;8.614;2023-09-07T12:27:55;28.00;1.00
3860;DHT22;1945;52.036;8.614;2023-09-07T12:30:23;28.00;1.00
3860;DHT22;1945;52.036;8.614;2023-09-07T12:32:51;28.00;1.00
3860;DHT22;1945;52.036;8.614;2023-09-07T12:35:18;28.00;1.00
3860;DHT22;1945;52.036;8.614;2023-09-07T12:37:46;28.00;1.00
3860;DHT22;1945;52.036;8.614;2023-09-07T12:40:13;28.00;1.00
3860;DHT22;1945;52.036;8.614;2023-09-07T12:42:40;28.00;1.00
3860;DHT22;1945;52.036;8.614;2023-09-07T12:45:10;27.90;1.00
3860;DHT22;1945;52.036;8.614;2023-09-07T12:47:38;28.10;1.00
3860;DHT22;1945;52.036;8.614;2023-09-07T12:50:06;28.10;1.00
3860;DHT22;1945;52.036;8.614;2023-09-07T12:52:34;28.10;1.00
3860;DHT22;1945;52.036;8.614;2023-09-07T12:55:03;28.10;1.00
3860;DHT22;1945;52.036;8.614;2023-09-07T12:57:30;28.10;1.00
3860;DHT22;1945;52.036;8.614;2023-09-07T12:59:57;28.10;1.00
3860;DHT22;1945;52.036;8.614;2023-09-07T13:02:26;28.10;1.00
3860;DHT22;1945;52.036;8.614;2023-09-07T13:04:54;28.10;1.00
3860;DHT22;1945;52.036;8.614;2023-09-07T13:07:21;28.10;1.00
3860;DHT22;1945;52.036;8.614;2023-09-07T13:09:48;28.10;1.00
3860;DHT22;1945;52.036;8.614;2023-09-07T13:12:15;28.10;1.00
3860;DHT22;1945;52.036;8.614;2023-09-07T13:14:42;28.20;1.00
3860;DHT22;1945;52.036;8.614;2023-09-07T13:17:12;28.10;1.00
3860;DHT22;1945;52.036;8.614;2023-09-07T13:19:41;28.10;1.00
3860;DHT22;1945;52.036;8.614;2023-09-07T13:22:12;28.20;1.00
3860;DHT22;1945;52.036;8.614;2023-09-07T13:24:39;28.20;1.00
3860;DHT22;1945;52.036;8.614;2023-09-07T13:27:06;28.20;1.00
3860;DHT22;1945;52.036;8.614;2023-09-07T13:29:35;28.10;1.00
3860;DHT22;1945;52.036;8.614;2023-09-07T13:32:02;28.10;1.00
3860;DHT22;1945;52.036;8.614;2023-09-07T13:34:29;28.10;1.00
3860;DHT22;1945;52.036;8.614;2023-09-07T13:36:57;28.10;1.00
3860;DHT22;1945;52.036;8.614;2023-09-07T13:39:24;28.10;1.00
3860;DHT22;1945;52.036;8.614;2023-09-07T13:41:51;28.10;1.00
3860;DHT22;1945;52.036;8.614;2023-09-07T13:44:17;28.20;1.00
3860;DHT22;1945;52.036;8.614;2023-09-07T13:46:44;28.10;1.00
3860;DHT22;1945;52.036;8.614;2023-09-07T13:49:11;28.10;1.00
3860;DHT22;1945;52.036;8.614;2023-09-07T13:51:40;28.10;1.00
3860;DHT22;1945;52.036;8.614;2023-09-07T13:54:08;28.10;1.00
3860;DHT22;1945;52.036;8.614;2023-09-07T13:56:35;28.10;1.00
3860;DHT22;1945;52.036;8.614;2023-09-07T13:59:02;28.10;1.00
3860;DHT22;1945;52.036;8.614;2023-09-07T14:01:30;28.10;1.00
3860;DHT22;1945;52.036;8.614;2023-09-07T14:03:59;28.10;1.00
3860;DHT22;1945;52.036;8.614;2023-09-07T14:06:30;28.10;1.00
3860;DHT22;1945;52.036;8.614;2023-09-07T14:08:58;28.10;1.00
3860;DHT22;1945;52.036;8.614;2023-09-07T14:11:26;28.10;1.00
3860;DHT22;1945;52.036;8.614;2023-09-07T14:13:53;28.10;1.00
3860;DHT22;1945;52.036;8.614;2023-09-07T14:16:21;28.10;1.00
3860;DHT22;1945;52.036;8.614;2023-09-07T14:18:48;28.10;1.00
3860;DHT22;1945;52.036;8.614;2023-09-07T14:21:16;28.10;1.00
3860;DHT22;1945;52.036;8.614;2023-09-07T14:23:43;28.10;1.00
3860;DHT22;1945;52.036;8.614;2023-09-07T14:26:10;28.10;1.00
3860;DHT22;1945;52.036;8.614;2023-09-07T14:28:39;28.10;1.00
3860;DHT22;1945;52.036;8.614;2023-09-07T14:31:06;28.10;1.00
3860;DHT22;1945;52.036;8.614;2023-09-07T14:33:34;28.10;1.00
3860;DHT22;1945;52.036;8.614;2023-09-07T14:36:04;28.10;1.00
3860;DHT22;1945;52.036;8.614;2023-09-07T14:38:31;28.10;1.00
3860;DHT22;1945;52.036;8.614;2023-09-07T14:41:00;28.10;1.00
3860;DHT22;1945;52.036;8.614;2023-09-07T14:43:27;28.10;1.00
3860;DHT22;1945;52.036;8.614;2023-09-07T14:45:55;28.10;1.00
3860;DHT22;1945;52.036;8.614;2023-09-07T14:48:23;28.10;1.00
3860;DHT22;1945;52.036;8.614;2023-09-07T14:50:50;28.10;1.00
3860;DHT22;1945;52.036;8.614;2023-09-07T14:53:17;28.00;1.00
3860;DHT22;1945;52.036;8.614;2023-09-07T14:55:44;28.00;1.00
3860;DHT22;1945;52.036;8.614;2023-09-07T14:58:11;28.00;1.00
3860;DHT22;1945;52.036;8.614;2023-09-07T15:00:38;28.00;1.00
3860;DHT22;1945;52.036;8.614;2023-09-07T15:03:06;28.00;1.00
3860;DHT22;1945;52.036;8.614;2023-09-07T15:05:33;28.10;1.00
3860;DHT22;1945;52.036;8.614;2023-09-07T15:08:00;28.00;1.00
3860;DHT22;1945;52.036;8.614;2023-09-07T15:10:28;27.90;1.00
3860;DHT22;1945;52.036;8.614;2023-09-07T15:12:55;28.00;1.00
3860;DHT22;1945;52.036;8.614;2023-09-07T15:15:22;28.00;1.00
3860;DHT22;1945;52.036;8.614;2023-09-07T15:17:48;28.00;1.00
3860;DHT22;1945;52.036;8.614;2023-09-07T15:20:17;27.90;1.00
3860;DHT22;1945;52.036;8.614;2023-09-07T15:22:44;27.90;1.00
3860;DHT22;1945;52.036;8.614;2023-09-07T15:25:11;27.90;1.00
3860;DHT22;1945;52.036;8.614;2023-09-07T15:27:37;27.90;1.00
3860;DHT22;1945;52.036;8.614;2023-09-07T15:30:06;27.80;1.00
3860;DHT22;1945;52.036;8.614;2023-09-07T15:32:33;27.80;1.00
3860;DHT22;1945;52.036;8.614;2023-09-07T15:35:00;27.80;1.00
3860;DHT22;1945;52.036;8.614;2023-09-07T15:37:28;27.80;1.00
3860;DHT22;1945;52.036;8.614;2023-09-07T15:39:56;27.80;1.00
3860;DHT22;1945;52.036;8.614;2023-09-07T15:42:25;27.70;1.00
3860;DHT22;1945;52.036;8.614;2023-09-07T15:44:52;27.70;1.00
3860;DHT22;1945;52.036;8.614;2023-09-07T15:47:19;27.70;1.00
3860;DHT22;1945;52.036;8.614;2023-09-07T15:49:46;27.70;1.00
3860;DHT22;1945;52.036;8.614;2023-09-07T15:52:17;27.60;1.00
3860;DHT22;1945;52.036;8.614;2023-09-07T15:54:46;27.70;1.00
3860;DHT22;1945;52.036;8.614;2023-09-07T15:57:13;27.70;1.00
3860;DHT22;1945;52.036;8.614;2023-09-07T15:59:40;27.60;1.00
3860;DHT22;1945;52.036;8.614;2023-09-07T16:02:07;27.50;1.00
3860;DHT22;1945;52.036;8.614;2023-09-07T16:04:34;27.50;1.00
3860;DHT22;1945;52.036;8.614;2023-09-07T16:07:01;27.50;1.00
3860;DHT22;1945;52.036;8.614;2023-09-07T16:09:29;27.50;1.00
3860;DHT22;1945;52.036;8.614;2023-09-07T16:11:57;27.50;1.00
3860;DHT22;1945;52.036;8.614;2023-09-07T16:14:24;27.40;1.00